Data for 10/15/2005

Time Sea-Level Adjusted Pressure Absolute Pressure Temperature Relative Humidity Dew Point   
(mb) (inHg) (mb) (inHg) (C) (F) (%) (C) (F)
00:05 1017 30.03 847 25.01 12.6 54.7 35 -2.3 27.8
00:10 1017 30.03 846 24.98 12.6 54.8 35 -2.2 28
00:15 1017 30.03 846 24.98 12.5 54.5 35 -2.3 27.8
00:20 1017 30.03 846 24.98 12.4 54.4 36 -2.1 28.2
00:25 1017 30.03 846 24.98 12.2 54 37 -2.1 28.2
00:30 1017 30.03 846 24.98 12.4 54.4 35 -2.4 27.7
00:35 1017 30.03 846 24.98 12.6 54.6 36 -2 28.4
00:40 1017 30.03 846 24.98 12.3 54.1 37 -1.8 28.7
00:45 1017 30.03 846 24.98 12 53.7 37 -2.3 27.9
00:50 1017 30.03 846 24.98 12.1 53.7 37 -2.1 28.1
00:55 1017 30.03 846 24.98 12.2 53.9 36 -2.3 27.8
01:00 1017 30.03 846 24.98 12 53.7 37 -2 28.4
01:05 1017 30.03 846 24.98 12.1 53.7 37 -2.3 27.9
01:10 1017 30.03 846 24.98 12 53.6 38 -1.8 28.8
01:15 1017 30.03 846 24.98 11.5 52.7 39 -2 28.4
01:20 1017 30.03 846 24.98 11.6 52.9 38 -2 28.4
01:25 1017 30.03 846 24.98 11.3 52.4 40 -1.6 29.1
01:30 1017 30.03 846 24.98 11.3 52.4 39 -2 28.3
01:35 1017 30.03 846 24.98 11.8 53.2 37 -2.4 27.7
01:40 1017 30.03 846 24.98 12.1 53.8 37 -2.2 28.1
01:45 1017 30.03 846 24.98 12.3 54.1 35 -2.7 27.2
01:50 1017 30.03 846 24.98 12.5 54.5 35 -2.5 27.5
01:55 1017 30.03 846 24.98 12.9 55.1 34 -2.6 27.3
02:00 1017 30.03 846 24.98 12.7 54.8 35 -2.2 28
02:05 1017 30.03 846 24.98 12.5 54.4 36 -2.1 28.2
02:10 1016 30 846 24.98 12 53.7 38 -1.9 28.5
02:15 1016 30 846 24.98 11.7 53.1 39 -1.8 28.8
02:20 1016 30 846 24.98 11.9 53.5 38 -2.1 28.3
02:25 1016 30 846 24.98 12 53.6 39 -1.5 29.3
02:30 1016 30 845 24.95 11.7 53 38 -2.1 28.3
02:35 1016 30 845 24.95 11.7 53.1 39 -1.9 28.6
02:40 1016 30 845 24.95 12.1 53.8 37 -2.2 28
02:45 1016 30 845 24.95 12 53.6 39 -1.6 29.1
02:50 1016 30 845 24.95 12.1 53.7 37 -2.1 28.2
02:55 1016 30 845 24.95 12 53.5 38 -2 28.5
03:00 1016 30 845 24.95 12.2 53.9 36 -2.5 27.5
03:05 1016 30 845 24.95 12.2 53.9 37 -2.1 28.2
03:10 1016 30 845 24.95 12.4 54.3 35 -2.4 27.7
03:15 1016 30 845 24.95 12.4 54.3 37 -1.8 28.7
03:20 1016 30 845 24.95 12.1 53.8 38 -1.8 28.7
03:25 1016 30 845 24.95 12 53.7 37 -2.1 28.2
03:30 1015 29.97 845 24.95 12.2 54 36 -2.5 27.5
03:35 1015 29.97 845 24.95 12.1 53.8 37 -2 28.4
03:40 1015 29.97 845 24.95 12.3 54.2 35 -2.5 27.5
03:45 1015 29.97 845 24.95 12.5 54.4 36 -2 28.4
03:50 1015 29.97 845 24.95 12 53.6 38 -1.6 29
03:55 1015 29.97 844 24.92 12.2 53.9 37 -1.9 28.5
04:00 1015 29.97 844 24.92 11.9 53.4 38 -1.8 28.8
04:05 1015 29.97 844 24.92 11.8 53.2 37 -2.5 27.5
04:10 1015 29.97 844 24.92 12.1 53.7 36 -2.3 27.8
04:15 1015 29.97 844 24.92 12.1 53.7 36 -2.7 27.2
04:20 1015 29.97 844 24.92 12 53.7 37 -2 28.4
04:25 1015 29.97 844 24.92 11.6 52.9 38 -2 28.3
04:30 1015 29.97 844 24.92 11.7 53 39 -1.8 28.8
04:35 1015 29.97 844 24.92 11.2 52.2 39 -2 28.3
04:40 1015 29.97 844 24.92 11.3 52.3 40 -1.9 28.6
04:45 1015 29.97 844 24.92 11.3 52.3 38 -2.6 27.3
04:50 1015 29.97 844 24.92 11.5 52.7 38 -2.2 28
04:55 1015 29.97 844 24.92 11.6 53 36 -2.9 26.8
05:00 1015 29.97 844 24.92 11.9 53.4 35 -3 26.7
05:05 1015 29.97 844 24.92 12.3 54.1 34 -2.9 26.7
05:10 1015 29.97 844 24.92 12.3 54.2 33 -3.2 26.2
05:15 1015 29.97 844 24.92 12.5 54.5 33 -3.1 26.5
05:20 1015 29.97 844 24.92 12.3 54.1 34 -3 26.6
05:25 1014 29.94 844 24.92 12 53.6 34 -3.1 26.3
05:30 1014 29.94 844 24.92 12.2 53.9 33 -3.4 25.8
05:35 1014 29.94 844 24.92 12 53.6 35 -3 26.7
05:40 1014 29.94 844 24.92 11.5 52.8 35 -3.3 26.1
05:45 1014 29.94 843 24.89 11.5 52.8 35 -3.3 26
05:50 1014 29.94 843 24.89 11.4 52.6 35 -3.6 25.5
05:55 1014 29.94 843 24.89 11.7 53.1 33 -4 24.8
06:00 1014 29.94 843 24.89 12.5 54.5 31 -4 24.8
06:05 1014 29.94 843 24.89 12.2 53.9 33 -3.6 25.5
06:10 1014 29.94 843 24.89 11.9 53.4 32 -4.1 24.7
06:15 1014 29.94 843 24.89 12.4 54.2 32 -4 24.9
06:20 1014 29.94 843 24.89 12.5 54.5 31 -4.2 24.5
06:25 1014 29.94 843 24.89 12.9 55.3 30 -4 24.8
06:30 1014 29.94 843 24.89 12.7 54.9 31 -4 24.7
06:35 1014 29.94 843 24.89 12.7 54.8 31 -3.8 25.1
06:40 1014 29.94 843 24.89 12.1 53.7 32 -4 24.8
06:45 1014 29.94 843 24.89 11.8 53.3 33 -3.9 25
06:50 1014 29.94 843 24.89 11.7 53.1 33 -3.9 25
06:55 1014 29.94 843 24.89 11.8 53.3 34 -3.7 25.4
07:00 1014 29.94 843 24.89 12.1 53.8 33 -3.7 25.4
07:05 1014 29.94 843 24.89 11.8 53.3 32 -4.1 24.6
07:10 1014 29.94 843 24.89 12.6 54.7 31 -4.2 24.4
07:15 1014 29.94 843 24.89 12.1 53.7 32 -4.1 24.7
07:20 1014 29.94 843 24.89 12 53.7 34 -3.4 25.9
07:25 1013 29.91 843 24.89 11.9 53.5 33 -3.9 25
07:30 1013 29.91 843 24.89 12.3 54.1 32 -3.8 25.2
07:35 1013 29.91 843 24.89 12.6 54.7 32 -3.7 25.3
07:40 1013 29.91 843 24.89 12.2 53.9 33 -3.6 25.5
07:45 1013 29.91 842 24.86 12 53.6 33 -3.6 25.6
07:50 1013 29.91 842 24.86 12.2 54 32 -3.9 24.9
07:55 1013 29.91 842 24.86 12.5 54.5 33 -3.2 26.2
08:00 1013 29.91 842 24.86 11.6 52.8 35 -3.5 25.7
08:05 1013 29.91 842 24.86 11.6 52.9 34 -3.8 25.2
08:10 1013 29.91 842 24.86 12.4 54.4 32 -3.9 24.9
08:15 1013 29.91 842 24.86 12.9 55.1 32 -3.4 25.9
08:20 1013 29.91 842 24.86 12.4 54.2 32 -3.9 24.9
08:25 1013 29.91 842 24.86 13.2 55.7 30 -4.1 24.7
08:30 1013 29.91 842 24.86 13.6 56.5 31 -3.3 26.1
08:35 1013 29.91 842 24.86 13.2 55.7 32 -3.1 26.4
08:40 1013 29.91 842 24.86 13.2 55.7 32 -3.2 26.3
08:45 1013 29.91 842 24.86 13.3 56 32 -2.8 26.9
08:50 1013 29.91 842 24.86 13.7 56.6 32 -2.7 27.1
08:55 1013 29.91 842 24.86 14.1 57.4 31 -2.6 27.3
09:00 1013 29.91 842 24.86 14.4 58 30 -2.7 27.1
09:05 1013 29.91 842 24.86 14.8 58.6 30 -2.4 27.7
09:10 1012 29.88 842 24.86 14.9 58.9 31 -2.1 28.2
09:15 1012 29.88 842 24.86 15.1 59.2 30 -2.1 28.3
09:20 1012 29.88 842 24.86 15.3 59.5 30 -1.9 28.5
09:25 1012 29.88 842 24.86 15.9 60.5 28 -2.6 27.3
09:30 1012 29.88 842 24.86 16.4 61.5 27 -2.4 27.6
09:35 1012 29.88 842 24.86 16.8 62.3 27 -2.4 27.6
09:40 1012 29.88 842 24.86 17.2 62.9 26 -2.5 27.4
09:45 1012 29.88 842 24.86 17.7 63.9 27 -1.3 29.7
09:50 1012 29.88 842 24.86 16.5 61.7 35 1 33.8
09:55 1012 29.88 842 24.86 14.5 58.1 38 0.5 32.9
10:00 1012 29.88 842 24.86 14.6 58.3 37 0.3 32.5
10:05 1012 29.88 842 24.86 15.4 59.8 35 0.2 32.3
10:10 1012 29.88 842 24.86 15.4 59.6 36 0.5 33
10:15 1012 29.88 842 24.86 16 60.9 34 0.3 32.5
10:20 1012 29.88 842 24.86 16.3 61.3 35 0.9 33.6
10:25 1012 29.88 841 24.83 15.7 60.3 35 0.6 33
10:30 1012 29.88 841 24.83 16.3 61.4 34 0.4 32.7
10:35 1012 29.88 841 24.83 17.4 63.4 32 0.8 33.5
10:40 1012 29.88 841 24.83 17.9 64.3 32 1 33.8
10:45 1012 29.88 841 24.83 17.4 63.2 33 1 33.8
10:50 1012 29.88 841 24.83 18.2 64.7 31 0.9 33.6
10:55 1012 29.88 841 24.83 17.5 63.5 33 1.2 34.2
11:00 1012 29.88 841 24.83 18.5 65.2 31 1.1 34
11:05 1012 29.88 841 24.83 18.5 65.3 32 1.5 34.7
11:10 1012 29.88 842 24.86 19 66.2 31 1.8 35.2
11:15 1012 29.88 841 24.83 18.1 64.6 36 3 37.5
11:20 1012 29.88 841 24.83 17.4 63.2 34 1.6 34.9
11:25 1012 29.88 841 24.83 18.1 64.6 32 1.1 34
11:30 1012 29.88 841 24.83 18.4 65 30 0.8 33.5
11:35 1012 29.88 841 24.83 18.6 65.4 29 0.3 32.5
11:40 1012 29.88 841 24.83 19 66.2 28 0.4 32.7
11:45 1012 29.88 841 24.83 19 66.2 27 -0 32
11:50 1012 29.88 841 24.83 18.9 66 27 -0.2 31.7
11:55 1012 29.88 841 24.83 18.4 65.1 29 0.1 32.2
12:00 1012 29.88 841 24.83 17.9 64.2 31 0.5 32.9
12:05 1012 29.88 841 24.83 19 66.2 28 0.2 32.4
12:10 1012 29.88 841 24.83 19.6 67.2 28 0.5 32.9
12:15 1012 29.88 841 24.83 19.8 67.6 27 0.5 32.9
12:20 1012 29.88 841 24.83 19.6 67.3 27 0.4 32.7
12:25 1012 29.88 841 24.83 19.7 67.4 28 1 33.8
12:30 1012 29.88 841 24.83 20.2 68.4 27 0.8 33.4
12:35 1012 29.88 841 24.83 20.3 68.5 27 1 33.9
12:40 1012 29.88 841 24.83 20.3 68.6 28 1.5 34.7
12:45 1012 29.88 841 24.83 20.5 68.9 29 2.1 35.8
12:50 1012 29.88 841 24.83 20.1 68.2 29 1.5 34.8
12:55 1012 29.88 841 24.83 19.9 67.8 27 0.4 32.7
13:00 1012 29.88 841 24.83 21.1 70 25 0.3 32.6
13:05 1012 29.88 841 24.83 22 71.6 24 0.9 33.6
13:10 1012 29.88 841 24.83 21.5 70.7 24 0.3 32.6
13:15 1012 29.88 841 24.83 21.9 71.3 22 -0.4 31.3
13:20 1011 29.85 841 24.83 22.4 72.3 23 0.2 32.4
13:25 1011 29.85 841 24.83 22.4 72.2 20 -1.2 29.8
13:30 1011 29.85 840 24.81 22.2 71.9 22 -0.1 31.8
13:35 1011 29.85 840 24.81 22.3 72.2 22 -0.1 31.8
13:40 1011 29.85 840 24.81 22.4 72.2 23 0.3 32.5
13:45 1011 29.85 840 24.81 23 73.4 18 -2.5 27.6
13:50 1011 29.85 840 24.81 22.1 71.8 18 -2.9 26.7
13:55 1011 29.85 840 24.81 22.1 71.8 18 -2.9 26.9
14:00 1011 29.85 840 24.81 21.8 71.3 18 -3.4 25.9
14:05 1011 29.85 840 24.81 22.1 71.8 18 -3.3 26
14:10 1011 29.85 840 24.81 22.7 72.8 17 -3.5 25.7
14:15 1011 29.85 840 24.81 22.9 73.3 17 -3.5 25.7
14:20 1011 29.85 840 24.81 23.3 73.9 16 -4 24.8
14:25 1011 29.85 840 24.81 23.6 74.4 16 -3.4 25.8
14:30 1011 29.85 840 24.81 23.8 74.9 16 -3.5 25.6
14:35 1011 29.85 840 24.81 23.6 74.4 16 -3.9 25
14:40 1011 29.85 840 24.81 23.4 74.2 15 -4.6 23.8
14:45 1011 29.85 840 24.81 23.8 74.9 15 -3.9 25
14:50 1011 29.85 840 24.81 24 75.2 16 -3.2 26.3
14:55 1011 29.85 840 24.81 24.4 75.8 15 -3.7 25.4
15:00 1011 29.85 840 24.81 24.5 76.2 15 -3.8 25.2
15:05 1011 29.85 840 24.81 24.9 76.8 14 -4 24.8
15:10 1011 29.85 840 24.81 24.8 76.7 15 -3.7 25.4
15:15 1011 29.85 840 24.81 24.8 76.7 14 -3.9 24.9
15:20 1011 29.85 840 24.81 25.2 77.3 14 -4.1 24.6
15:25 1011 29.85 840 24.81 25.5 77.9 14 -3.9 25
15:30 1011 29.85 840 24.81 25.5 77.8 14 -3.7 25.3
15:35 1011 29.85 840 24.81 24.3 75.8 15 -4 24.8
15:40 1011 29.85 840 24.81 23.4 74.1 15 -4.3 24.3
15:45 1011 29.85 840 24.81 24.2 75.6 14 -4.4 24.1
15:50 1011 29.85 840 24.81 24.7 76.5 14 -4.6 23.8
15:55 1011 29.85 840 24.81 24.3 75.7 15 -4 24.7
16:00 1011 29.85 840 24.81 23.6 74.4 14 -5 23
16:05 1011 29.85 840 24.81 24 75.2 14 -4.8 23.3
16:10 1011 29.85 840 24.81 24.5 76.2 14 -4.2 24.5
16:15 1011 29.85 840 24.81 24.1 75.4 14 -4.7 23.5
16:20 1011 29.85 840 24.81 23.7 74.7 14 -4.9 23.2
16:25 1011 29.85 840 24.81 24.1 75.3 14 -4.8 23.4
16:30 1011 29.85 840 24.81 24.4 75.9 14 -4.6 23.8
16:35 1011 29.85 840 24.81 23.9 75 15 -4.4 24.1
16:40 1011 29.85 840 24.81 24.2 75.5 15 -4 24.7
16:45 1011 29.85 840 24.81 24.7 76.5 14 -4.3 24.2
16:50 1011 29.85 840 24.81 24.4 75.9 15 -4.1 24.7
16:55 1011 29.85 840 24.81 23.8 74.9 15 -4.4 24.1
17:00 1011 29.85 840 24.81 24.4 76 14 -4.1 24.6
17:05 1011 29.85 840 24.81 24 75.2 14 -4.8 23.4
17:10 1011 29.85 840 24.81 23.4 74.1 15 -4.9 23.3
17:15 1011 29.85 840 24.81 23.1 73.6 15 -5.1 22.8
17:20 1011 29.85 840 24.81 22.9 73.3 16 -3.9 24.9
17:25 1011 29.85 840 24.81 22.5 72.5 18 -3 26.5
17:30 1011 29.85 840 24.81 22.2 72 19 -2.5 27.5
17:35 1011 29.85 840 24.81 21.9 71.5 19 -2.6 27.2
17:40 1011 29.85 840 24.81 22 71.5 19 -2.2 28.1
17:45 1011 29.85 840 24.81 21.8 71.3 20 -2.2 28.1
17:50 1011 29.85 840 24.81 21.9 71.4 18 -3 26.6
17:55 1011 29.85 840 24.81 21.7 71.1 19 -2.4 27.6
18:00 1011 29.85 840 24.81 21.2 70.2 19 -3 26.6
18:05 1011 29.85 840 24.81 20.9 69.5 20 -2.9 26.8
18:10 1011 29.85 840 24.81 20.5 68.9 21 -2.3 27.9
18:15 1011 29.85 840 24.81 19.9 67.8 21 -3 26.5
18:20 1011 29.85 840 24.81 19.9 67.8 21 -3.1 26.4
18:25 1011 29.85 840 24.81 19.8 67.7 21 -2.8 26.9
18:30 1011 29.85 840 24.81 19.5 67 23 -2.2 28
18:35 1011 29.85 841 24.83 19.1 66.3 28 0.1 32.1
18:40 1011 29.85 841 24.83 18.7 65.7 24 -2.4 27.7
18:45 1011 29.85 841 24.83 18.2 64.7 25 -2.1 28.2
18:50 1011 29.85 841 24.83 17.7 63.9 27 -1.5 29.2
18:55 1011 29.85 841 24.83 17.5 63.5 26 -2.2 28
19:00 1011 29.85 841 24.83 17.6 63.6 25 -2.4 27.8
19:05 1011 29.85 841 24.83 17.2 63 27 -1.6 29.1
19:10 1012 29.88 841 24.83 17.3 63.2 25 -2.9 26.8
19:15 1012 29.88 841 24.83 17.4 63.3 25 -2.5 27.4
19:20 1012 29.88 841 24.83 16.9 62.5 27 -1.9 28.6
19:25 1012 29.88 841 24.83 16.2 61.2 34 0.4 32.7
19:30 1012 29.88 841 24.83 16 60.7 29 -1.8 28.8
19:35 1012 29.88 841 24.83 15.5 59.9 31 -1.6 29.1
19:40 1012 29.88 841 24.83 15.2 59.3 31 -1.7 28.9
19:45 1012 29.88 841 24.83 15.1 59.2 31 -1.7 29
19:50 1012 29.88 841 24.83 15.2 59.3 31 -1.9 28.6
19:55 1012 29.88 841 24.83 15 59.1 31 -1.7 29
20:00 1012 29.88 841 24.83 14.9 58.7 31 -2 28.5
20:05 1012 29.88 841 24.83 14.9 58.9 31 -1.9 28.5
20:10 1012 29.88 841 24.83 14.8 58.6 33 -1.3 29.6
20:15 1012 29.88 841 24.83 14.2 57.6 34 -1.4 29.5
20:20 1012 29.88 842 24.86 13.6 56.4 37 -0.7 30.8
20:25 1012 29.88 842 24.86 12.9 55.3 36 -1.7 29
20:30 1012 29.88 842 24.86 13.8 56.8 31 -2.9 26.7
20:35 1013 29.91 842 24.86 14.6 58.2 30 -2.6 27.3
20:40 1013 29.91 842 24.86 14.6 58.2 31 -2.4 27.7
20:45 1013 29.91 842 24.86 14.4 57.9 31 -2.4 27.6
20:50 1013 29.91 842 24.86 14.3 57.8 33 -1.6 29.2
20:55 1013 29.91 842 24.86 14.1 57.4 35 -1 30.1
21:00 1013 29.91 842 24.86 14.2 57.6 32 -2.3 27.9
21:05 1013 29.91 842 24.86 14.2 57.6 32 -2 28.3
21:10 1013 29.91 842 24.86 14.1 57.3 31 -2.6 27.2
21:15 1013 29.91 842 24.86 13.9 56.9 34 -1.6 29.1
21:20 1013 29.91 842 24.86 12.9 55.1 37 -1.3 29.7
21:25 1013 29.91 842 24.86 12.3 54.2 41 -0.7 30.8
21:30 1013 29.91 842 24.86 12.1 53.7 39 -1.3 29.6
21:35 1013 29.91 842 24.86 12.7 54.9 38 -1.1 30
21:40 1013 29.91 842 24.86 12.7 54.8 35 -2.4 27.6
21:45 1013 29.91 842 24.86 12.9 55.3 38 -1 30.2
21:50 1013 29.91 842 24.86 12.4 54.3 39 -1.3 29.7
21:55 1013 29.91 843 24.89 12.2 54 40 -1 30.3
22:00 1013 29.91 842 24.86 12.3 54.1 38 -1.7 29
22:05 1013 29.91 843 24.89 12.3 54.2 39 -1.1 30.1
22:10 1013 29.91 843 24.89 11.9 53.4 40 -1.1 30.1
22:15 1013 29.91 843 24.89 11.8 53.3 41 -1.1 30
22:20 1013 29.91 843 24.89 11.4 52.6 45 -0.1 31.8
22:25 1013 29.91 843 24.89 10.5 50.9 43 -1.5 29.3
22:30 1013 29.91 843 24.89 10.9 51.5 42 -1.6 29.2
22:35 1013 29.91 843 24.89 11.2 52.2 40 -1.8 28.8
22:40 1013 29.91 843 24.89 11.6 52.9 38 -2 28.4
22:45 1013 29.91 843 24.89 11.8 53.2 41 -1.1 30.1
22:50 1013 29.91 843 24.89 11.2 52.2 41 -1.5 29.3
22:55 1014 29.94 843 24.89 11.4 52.6 40 -1.6 29.2
23:00 1013 29.91 843 24.89 11.7 53 39 -1.9 28.6
23:05 1014 29.94 843 24.89 11.9 53.4 40 -1.3 29.7
23:10 1014 29.94 843 24.89 11.5 52.7 41 -1.2 29.9
23:15 1014 29.94 843 24.89 10.9 51.7 44 -0.9 30.3
23:20 1014 29.94 843 24.89 10.3 50.5 46 -0.8 30.5
23:25 1014 29.94 843 24.89 10 50 47 -0.9 30.4
23:30 1014 29.94 843 24.89 10.2 50.4 45 -1.2 29.9
23:35 1014 29.94 843 24.89 10.5 50.8 45 -0.8 30.5
23:40 1014 29.94 843 24.89 10 49.9 47 -0.6 30.8
23:45 1014 29.94 843 24.89 9.5 49 50 -0.5 31.1
23:50 1014 29.94 843 24.89 9.6 49.3 45 -1.8 28.7
23:55 1014 29.94 843 24.89 10.4 50.7 42 -1.9 28.5
24:00 1014 29.94 843 24.89 10.7 51.2 42 -1.7 29